createdAt,value
2018-04-27T00:00:24.569Z,2.80
2018-04-27T00:02:52.105Z,2.80
2018-04-27T00:05:20.456Z,2.60
2018-04-27T00:07:48.004Z,2.60
2018-04-27T00:10:15.560Z,2.50
2018-04-27T00:12:43.109Z,2.40
2018-04-27T00:15:11.479Z,2.30
2018-04-27T00:17:38.978Z,2.30
2018-04-27T00:20:07.443Z,2.30
2018-04-27T00:22:34.983Z,2.30
2018-04-27T00:25:02.521Z,2.30
2018-04-27T00:27:30.066Z,2.40
2018-04-27T00:29:57.618Z,2.40
2018-04-27T00:32:25.156Z,2.50
2018-04-27T00:34:53.422Z,2.40
2018-04-27T00:37:20.952Z,2.40
2018-04-27T00:39:49.292Z,2.30
2018-04-27T00:42:16.785Z,2.30
2018-04-27T00:44:45.096Z,2.20
2018-04-27T00:47:12.598Z,2.10
2018-04-27T00:49:40.146Z,2.10
2018-04-27T00:52:07.678Z,2.10
2018-04-27T00:54:35.997Z,2.00
2018-04-27T00:57:03.532Z,2.00
2018-04-27T00:59:31.086Z,2.00
2018-04-27T01:01:58.580Z,2.00
2018-04-27T01:04:26.085Z,1.80
2018-04-27T01:06:54.349Z,1.70
2018-04-27T01:09:21.897Z,1.70
2018-04-27T01:11:49.441Z,1.80
2018-04-27T01:14:16.987Z,1.70
2018-04-27T01:16:44.529Z,1.70
2018-04-27T01:19:12.034Z,1.70
2018-04-27T01:21:39.533Z,1.70
2018-04-27T01:24:07.077Z,1.70
2018-04-27T01:26:35.380Z,1.80
2018-04-27T01:29:02.883Z,1.80
2018-04-27T01:31:30.415Z,1.80
2018-04-27T01:33:57.949Z,1.90
2018-04-27T01:36:25.492Z,1.90
2018-04-27T01:38:53.790Z,1.60
2018-04-27T01:41:21.304Z,1.60
2018-04-27T01:43:48.829Z,1.50
2018-04-27T01:46:16.377Z,1.50
2018-04-27T01:48:43.913Z,1.40
2018-04-27T01:51:11.416Z,1.30
2018-04-27T01:53:38.945Z,1.30
2018-04-27T01:56:06.498Z,1.30
2018-04-27T01:58:34.033Z,1.30
2018-04-27T02:01:02.345Z,1.40
2018-04-27T02:03:29.835Z,1.40
2018-04-27T02:05:57.349Z,1.50
2018-04-27T02:08:24.888Z,1.60
2018-04-27T02:10:53.203Z,1.60
2018-04-27T02:13:20.696Z,1.60
2018-04-27T02:15:48.203Z,1.60
2018-04-27T02:18:15.702Z,1.50
2018-04-27T02:20:43.167Z,1.50
2018-04-27T02:23:10.639Z,1.50
2018-04-27T02:25:38.926Z,1.60
2018-04-27T02:28:07.149Z,1.60
2018-04-27T02:30:35.394Z,1.70
2018-04-27T02:33:02.946Z,1.70
2018-04-27T02:35:30.391Z,1.60
2018-04-27T02:37:58.626Z,1.60
2018-04-27T02:40:26.107Z,1.60
2018-04-27T02:42:54.338Z,1.60
2018-04-27T02:45:21.846Z,1.60
2018-04-27T02:47:50.103Z,1.70
2018-04-27T02:50:17.624Z,1.60
2018-04-27T02:52:45.082Z,1.70
2018-04-27T02:55:12.611Z,1.80
2018-04-27T02:57:40.113Z,1.70
2018-04-27T03:00:07.587Z,1.70
2018-04-27T03:02:35.064Z,1.70
2018-04-27T03:05:03.302Z,1.60
2018-04-27T03:07:30.796Z,1.60
2018-04-27T03:09:59.028Z,1.50
2018-04-27T03:12:26.507Z,1.50
2018-04-27T03:14:54.009Z,1.50
2018-04-27T03:17:21.530Z,1.50
2018-04-27T03:19:48.993Z,1.50
2018-04-27T03:22:17.238Z,1.50
2018-04-27T03:24:44.799Z,1.40
2018-04-27T03:27:12.311Z,1.50
2018-04-27T03:29:39.812Z,1.40
2018-04-27T03:32:07.322Z,1.40
2018-04-27T03:34:34.810Z,1.50
2018-04-27T03:37:02.286Z,1.40
2018-04-27T03:39:29.790Z,1.40
2018-04-27T03:41:58.068Z,1.40
2018-04-27T03:44:25.574Z,1.30
2018-04-27T03:46:53.083Z,1.40
2018-04-27T03:49:20.580Z,1.40
2018-04-27T03:51:48.127Z,1.50
2018-04-27T03:54:15.632Z,1.40
2018-04-27T03:56:43.136Z,1.50
2018-04-27T03:59:10.594Z,1.50
2018-04-27T04:01:50.027Z,1.50
2018-04-27T04:04:29.365Z,1.50
2018-04-27T04:06:56.846Z,1.40
2018-04-27T04:09:24.352Z,1.50
2018-04-27T04:11:52.622Z,1.40
2018-04-27T04:14:20.850Z,1.50
2018-04-27T04:16:48.352Z,1.40
2018-04-27T04:19:16.592Z,1.50
2018-04-27T04:21:44.109Z,1.50
2018-04-27T04:24:11.640Z,1.50
2018-04-27T04:26:39.870Z,1.70
2018-04-27T04:29:07.331Z,1.60
2018-04-27T04:31:34.802Z,1.70
2018-04-27T04:34:02.267Z,1.80
2018-04-27T04:36:29.780Z,1.90
2018-04-27T04:38:57.233Z,2.00
2018-04-27T04:41:24.707Z,2.10
2018-04-27T04:43:52.264Z,2.20
2018-04-27T04:46:19.725Z,2.30
2018-04-27T04:48:47.241Z,2.40
2018-04-27T04:51:15.467Z,2.60
2018-04-27T04:53:42.976Z,2.60
2018-04-27T04:56:11.239Z,2.70
2018-04-27T04:58:39.512Z,2.80
2018-04-27T05:01:07.730Z,3.00
2018-04-27T05:03:35.245Z,3.00
2018-04-27T05:06:03.471Z,3.40
2018-04-27T05:08:30.992Z,3.30
2018-04-27T05:10:59.216Z,4.00
2018-04-27T05:13:26.731Z,4.00
2018-04-27T05:15:54.224Z,4.50
2018-04-27T05:21:40.340Z,5.50
2018-04-27T05:24:07.863Z,5.70
2018-04-27T05:26:35.346Z,6.50
2018-04-27T05:29:02.862Z,7.50
2018-04-27T05:31:31.133Z,8.90
2018-04-27T05:33:59.405Z,9.10
2018-04-27T05:36:26.913Z,9.10
2018-04-27T05:38:54.401Z,9.30
2018-04-27T05:41:21.877Z,10.60
2018-04-27T05:43:50.172Z,12.50
2018-04-27T05:46:18.447Z,12.90
2018-04-27T05:48:46.701Z,12.20
2018-04-27T05:51:15.001Z,12.10
2018-04-27T05:53:42.512Z,12.10
2018-04-27T05:56:10.037Z,11.40
2018-04-27T05:58:37.553Z,12.10
2018-04-27T06:01:05.815Z,13.10
2018-04-27T06:03:45.209Z,13.00
2018-04-27T06:06:12.749Z,12.40
2018-04-27T06:08:40.309Z,12.00
2018-04-27T06:11:07.848Z,11.00
2018-04-27T06:13:36.152Z,10.60
2018-04-27T06:16:03.693Z,10.60
2018-04-27T06:18:32.019Z,10.10
2018-04-27T06:20:59.561Z,10.10
2018-04-27T06:23:27.035Z,9.80
2018-04-27T06:25:55.279Z,9.70
2018-04-27T06:28:22.774Z,9.70
2018-04-27T06:30:50.293Z,9.90
2018-04-27T06:33:17.824Z,9.70
2018-04-27T06:35:46.055Z,10.30
2018-04-27T06:38:13.574Z,10.20
2018-04-27T06:40:41.114Z,10.70
2018-04-27T06:43:09.394Z,10.90
2018-04-27T06:45:37.652Z,10.80
2018-04-27T06:48:05.152Z,10.80
2018-04-27T06:50:32.637Z,10.80
2018-04-27T06:53:00.162Z,10.80
2018-04-27T06:55:27.647Z,10.80
2018-04-27T06:57:55.149Z,11.10
2018-04-27T07:00:23.452Z,11.60
2018-04-27T07:02:50.982Z,11.60
2018-04-27T07:05:19.328Z,12.70
2018-04-27T07:07:46.802Z,12.70
2018-04-27T07:10:14.277Z,13.10
2018-04-27T07:12:42.534Z,14.50
2018-04-27T07:15:10.092Z,14.40
2018-04-27T07:17:37.624Z,15.50
2018-04-27T07:20:05.110Z,15.90
2018-04-27T07:22:32.644Z,16.20
2018-04-27T07:25:00.132Z,16.60
2018-04-27T07:27:27.599Z,17.90
2018-04-27T07:29:55.879Z,18.70
2018-04-27T07:32:23.354Z,18.60
2018-04-27T07:34:50.846Z,19.50
2018-04-27T07:37:18.351Z,21.20
2018-04-27T07:39:46.637Z,21.90
2018-04-27T07:42:14.870Z,21.70
2018-04-27T07:44:42.400Z,21.70
2018-04-27T07:47:09.878Z,20.80
2018-04-27T07:49:37.367Z,20.30
2018-04-27T07:52:05.613Z,21.30
2018-04-27T07:54:33.151Z,21.30
2018-04-27T07:57:00.673Z,21.30
2018-04-27T07:59:28.974Z,21.30
2018-04-27T08:01:56.460Z,21.30
2018-04-27T08:04:23.948Z,21.60
2018-04-27T08:06:51.443Z,21.20
2018-04-27T08:09:18.951Z,20.40
2018-04-27T08:11:46.488Z,20.00
2018-04-27T08:14:14.735Z,20.00
2018-04-27T08:16:42.247Z,20.00
2018-04-27T08:19:09.760Z,21.40
2018-04-27T08:21:37.309Z,22.80
2018-04-27T08:24:04.874Z,24.10
2018-04-27T08:26:32.420Z,24.10
2018-04-27T08:29:01.750Z,23.80
2018-04-27T08:31:29.269Z,24.80
2018-04-27T08:33:56.741Z,25.80
2018-04-27T08:36:24.287Z,25.80
2018-04-27T08:38:51.803Z,25.60
2018-04-27T08:41:19.305Z,25.00
2018-04-27T08:43:46.785Z,25.20
2018-04-27T08:46:14.284Z,24.90
2018-04-27T08:48:41.771Z,24.10
2018-04-27T08:51:09.296Z,23.90
2018-04-27T08:53:36.805Z,23.50
2018-04-27T08:56:04.307Z,21.70
2018-04-27T08:58:31.839Z,19.50
2018-04-27T09:00:59.338Z,18.40
2018-04-27T09:03:27.591Z,16.90
2018-04-27T09:05:55.107Z,16.80
2018-04-27T09:08:22.567Z,16.60
2018-04-27T09:10:50.088Z,16.20
2018-04-27T09:13:17.609Z,16.20
2018-04-27T09:15:45.140Z,16.00
2018-04-27T09:18:12.652Z,15.60
2018-04-27T09:20:40.176Z,15.70
2018-04-27T09:23:07.677Z,15.80
2018-04-27T09:25:35.142Z,16.10
2018-04-27T09:28:03.428Z,16.10
2018-04-27T09:30:31.667Z,16.20
2018-04-27T09:32:59.183Z,16.20
2018-04-27T09:35:26.647Z,16.10
2018-04-27T09:37:54.135Z,16.10
2018-04-27T09:40:21.639Z,16.30
2018-04-27T09:42:49.139Z,16.30
2018-04-27T09:45:16.606Z,16.10
2018-04-27T09:47:44.146Z,15.90
2018-04-27T09:50:11.656Z,16.00
2018-04-27T09:52:39.936Z,15.70
2018-04-27T09:55:08.169Z,15.80
2018-04-27T09:57:36.411Z,16.00
2018-04-27T10:00:03.917Z,16.00
2018-04-27T10:02:31.415Z,16.10
2018-04-27T10:04:58.931Z,15.70
2018-04-27T10:07:26.416Z,15.70
2018-04-27T10:09:54.642Z,16.00
2018-04-27T10:12:22.234Z,16.00
2018-04-27T10:14:49.787Z,16.30
2018-04-27T10:17:17.296Z,16.30
2018-04-27T10:19:44.763Z,16.10
2018-04-27T10:22:12.275Z,15.80
2018-04-27T10:24:40.547Z,15.70
2018-04-27T10:27:08.833Z,15.80
2018-04-27T10:29:37.088Z,16.00
2018-04-27T10:32:04.653Z,15.90
2018-04-27T10:34:32.935Z,16.00
2018-04-27T10:37:01.236Z,15.80
2018-04-27T10:39:28.710Z,15.80
2018-04-27T10:41:56.206Z,15.90
2018-04-27T10:44:23.674Z,16.00
2018-04-27T10:46:51.959Z,15.70
2018-04-27T10:49:20.263Z,15.60
2018-04-27T10:51:47.757Z,15.50
2018-04-27T10:54:15.682Z,15.50
2018-04-27T10:56:43.303Z,15.40
2018-04-27T10:59:10.818Z,15.30
2018-04-27T11:01:38.274Z,15.30
2018-04-27T11:04:05.802Z,15.10
2018-04-27T11:06:33.268Z,15.10
2018-04-27T11:09:00.797Z,15.00
2018-04-27T11:11:28.295Z,15.00
2018-04-27T11:13:55.915Z,14.90
2018-04-27T11:16:23.399Z,14.80
2018-04-27T11:18:50.909Z,14.80
2018-04-27T11:21:18.386Z,14.80
2018-04-27T11:23:45.897Z,15.00
2018-04-27T11:26:13.350Z,15.20
2018-04-27T11:28:40.901Z,15.30
2018-04-27T11:31:08.412Z,15.30
2018-04-27T11:33:35.930Z,15.20
2018-04-27T11:36:03.461Z,15.30
2018-04-27T11:38:31.769Z,15.20
2018-04-27T11:40:59.271Z,15.20
2018-04-27T11:43:26.868Z,15.20
2018-04-27T11:45:54.342Z,15.10
2018-04-27T11:48:21.879Z,15.00
2018-04-27T11:50:49.517Z,15.00
2018-04-27T11:53:18.731Z,15.40
2018-04-27T11:55:46.292Z,15.40
2018-04-27T11:58:13.783Z,15.40
2018-04-27T12:00:41.292Z,15.40
2018-04-27T12:03:09.572Z,15.50
2018-04-27T12:05:37.806Z,15.50
2018-04-27T12:08:05.295Z,15.50
2018-04-27T12:10:33.546Z,15.30
2018-04-27T12:13:01.039Z,15.30
2018-04-27T12:15:29.284Z,15.30
2018-04-27T12:17:56.795Z,15.20
2018-04-27T12:20:24.262Z,15.30
2018-04-27T12:22:51.779Z,15.30
2018-04-27T12:25:20.057Z,15.50
2018-04-27T12:27:48.328Z,15.50
2018-04-27T12:30:16.618Z,15.40
2018-04-27T12:32:44.314Z,15.40
2018-04-27T12:35:11.789Z,15.50
2018-04-27T12:37:39.296Z,15.50
2018-04-27T12:40:07.576Z,15.50
2018-04-27T12:42:35.074Z,15.50
2018-04-27T12:45:02.684Z,15.50
2018-04-27T12:47:30.121Z,15.40
2018-04-27T12:49:57.610Z,15.40
2018-04-27T12:52:25.093Z,15.40
2018-04-27T12:54:52.608Z,15.30
2018-04-27T12:57:20.863Z,15.30
2018-04-27T12:59:48.350Z,15.30
2018-04-27T13:02:16.585Z,15.40
2018-04-27T13:04:44.122Z,15.30
2018-04-27T13:07:11.624Z,15.40
2018-04-27T13:09:39.907Z,15.60
2018-04-27T13:12:08.138Z,15.60
2018-04-27T13:14:35.619Z,15.60
2018-04-27T13:17:03.128Z,15.60
2018-04-27T13:19:30.633Z,15.70
2018-04-27T13:21:58.213Z,15.70
2018-04-27T13:24:25.630Z,15.70
2018-04-27T13:26:53.270Z,15.50
2018-04-27T13:29:20.787Z,15.60
2018-04-27T13:31:49.067Z,15.60
2018-04-27T13:34:17.314Z,15.60
2018-04-27T13:36:44.785Z,15.60
2018-04-27T13:39:12.308Z,15.70
2018-04-27T13:41:39.782Z,15.80
2018-04-27T13:44:07.400Z,15.70
2018-04-27T13:46:34.928Z,15.70
2018-04-27T13:49:03.212Z,15.70
2018-04-27T13:51:31.546Z,15.80
2018-04-27T13:53:59.025Z,15.80
2018-04-27T13:56:27.300Z,15.70
2018-04-27T13:58:54.790Z,15.70
2018-04-27T14:01:22.299Z,15.70
2018-04-27T14:03:49.788Z,15.80
2018-04-27T14:06:18.075Z,15.70
2018-04-27T14:08:46.348Z,15.70
2018-04-27T14:11:14.673Z,15.80
2018-04-27T14:13:42.145Z,15.80
2018-04-27T14:16:09.663Z,15.80
2018-04-27T14:18:37.128Z,15.80
2018-04-27T14:21:04.639Z,15.90
2018-04-27T14:23:32.919Z,16.00
2018-04-27T14:26:01.224Z,15.90
2018-04-27T14:28:28.719Z,15.90
2018-04-27T14:30:56.214Z,15.90
2018-04-27T14:33:24.446Z,15.80
2018-04-27T14:35:51.964Z,15.80
2018-04-27T14:38:19.472Z,15.70
2018-04-27T14:40:46.992Z,15.70
2018-04-27T14:43:14.507Z,15.70
2018-04-27T14:45:42.040Z,15.80
2018-04-27T14:48:09.503Z,15.90
2018-04-27T14:50:37.043Z,15.90
2018-04-27T14:53:04.575Z,15.90
2018-04-27T14:55:32.089Z,15.90
2018-04-27T14:57:59.558Z,15.90
2018-04-27T15:00:27.820Z,15.90
2018-04-27T15:02:55.342Z,15.90
2018-04-27T15:05:22.875Z,15.80
2018-04-27T15:07:50.352Z,15.90
2018-04-27T15:10:17.880Z,15.80
2018-04-27T15:12:46.122Z,15.80
2018-04-27T15:15:14.404Z,15.90
2018-04-27T15:17:41.874Z,15.90
2018-04-27T15:20:10.161Z,15.90
2018-04-27T15:22:38.441Z,16.00
2018-04-27T15:25:06.674Z,16.10
2018-04-27T15:27:34.171Z,16.10
2018-04-27T15:30:02.472Z,16.10
2018-04-27T15:32:29.979Z,16.10
2018-04-27T15:34:57.500Z,16.10
2018-04-27T15:37:24.978Z,16.00
2018-04-27T15:39:52.437Z,16.10
2018-04-27T15:42:19.932Z,16.10
2018-04-27T15:44:48.178Z,16.00
2018-04-27T15:47:15.671Z,16.10
2018-04-27T15:49:43.147Z,16.00
2018-04-27T15:52:10.686Z,16.10
2018-04-27T15:54:38.155Z,16.10
2018-04-27T15:57:05.651Z,16.10
2018-04-27T15:59:33.359Z,16.10
2018-04-27T16:02:01.697Z,16.00
2018-04-27T16:04:29.187Z,16.00
2018-04-27T16:06:56.710Z,16.10
2018-04-27T16:09:24.271Z,16.00
2018-04-27T16:11:51.694Z,15.90
2018-04-27T16:14:19.183Z,15.90
2018-04-27T16:16:46.809Z,16.00
2018-04-27T16:19:14.345Z,16.10
2018-04-27T16:21:42.946Z,16.10
2018-04-27T16:24:10.463Z,16.10
2018-04-27T16:26:37.983Z,16.10
2018-04-27T16:29:05.516Z,16.20
2018-04-27T16:31:33.063Z,16.10
2018-04-27T16:34:01.360Z,16.10
2018-04-27T16:36:28.873Z,16.10
2018-04-27T16:38:56.367Z,16.10
2018-04-27T16:41:23.874Z,16.30
2018-04-27T16:43:51.419Z,16.40
2018-04-27T16:46:19.690Z,16.60
2018-04-27T16:48:47.169Z,16.60
2018-04-27T16:51:14.690Z,16.60
2018-04-27T16:53:42.231Z,16.70
2018-04-27T16:56:09.699Z,16.60
2018-04-27T16:58:37.227Z,16.50
2018-04-27T17:01:05.681Z,16.30
2018-04-27T17:03:33.294Z,16.30
2018-04-27T17:06:00.714Z,16.30
2018-04-27T17:08:29.008Z,16.20
2018-04-27T17:10:56.484Z,16.20
2018-04-27T17:13:23.989Z,16.20
2018-04-27T17:15:51.467Z,16.20
2018-04-27T17:18:19.769Z,16.10
2018-04-27T17:20:47.303Z,16.10
2018-04-27T17:23:15.538Z,16.00
2018-04-27T17:25:43.057Z,16.00
2018-04-27T17:28:10.538Z,16.00
2018-04-27T17:30:38.022Z,15.90
2018-04-27T17:33:05.558Z,15.90
2018-04-27T17:35:33.070Z,15.80
2018-04-27T17:38:01.312Z,15.60
2018-04-27T17:40:28.850Z,15.60
2018-04-27T17:42:56.354Z,15.60
2018-04-27T17:45:24.629Z,15.60
2018-04-27T17:47:52.910Z,15.50
2018-04-27T17:50:21.146Z,15.40
2018-04-27T17:52:48.616Z,15.40
2018-04-27T17:55:16.130Z,15.40
2018-04-27T17:57:43.629Z,15.30
2018-04-27T18:00:11.148Z,15.30
2018-04-27T18:02:38.648Z,15.30
2018-04-27T18:05:06.133Z,15.30
2018-04-27T18:07:34.447Z,15.00
2018-04-27T18:10:01.965Z,15.00
2018-04-27T18:12:30.227Z,14.70
2018-04-27T18:14:58.487Z,14.50
2018-04-27T18:17:26.002Z,14.50
2018-04-27T18:19:53.520Z,14.30
2018-04-27T18:22:21.800Z,14.00
2018-04-27T18:24:50.067Z,13.90
2018-04-27T18:27:17.558Z,13.80
2018-04-27T18:29:45.067Z,13.70
2018-04-27T18:32:12.539Z,13.60
2018-04-27T18:34:40.044Z,13.60
2018-04-27T18:37:07.555Z,13.50
2018-04-27T18:39:35.053Z,13.40
2018-04-27T18:42:02.523Z,13.30
2018-04-27T18:44:30.107Z,13.20
2018-04-27T18:46:58.333Z,13.00
2018-04-27T18:49:25.861Z,13.00
2018-04-27T18:51:53.338Z,13.00
2018-04-27T18:54:20.829Z,12.90
2018-04-27T18:56:48.356Z,12.80
2018-04-27T18:59:16.608Z,12.70
2018-04-27T19:01:44.139Z,12.70
2018-04-27T19:04:11.634Z,12.60
2018-04-27T19:06:39.915Z,12.40
2018-04-27T19:09:08.218Z,12.20
2018-04-27T19:11:35.809Z,12.20
2018-04-27T19:14:03.352Z,12.00
2018-04-27T19:16:31.631Z,11.50
2018-04-27T19:18:59.132Z,11.50
2018-04-27T19:21:27.443Z,11.30
2018-04-27T19:23:54.943Z,11.30
2018-04-27T19:26:22.456Z,11.30
2018-04-27T19:28:49.988Z,11.30
2018-04-27T19:31:18.301Z,11.10
2018-04-27T19:33:45.854Z,11.10
2018-04-27T19:36:13.322Z,10.90
2018-04-27T19:38:40.825Z,10.80
2018-04-27T19:41:08.357Z,10.60
2018-04-27T19:43:35.865Z,10.60
2018-04-27T19:46:04.154Z,10.40
2018-04-27T19:48:31.679Z,10.30
2018-04-27T19:50:59.214Z,10.30
2018-04-27T19:53:26.702Z,10.20
2018-04-27T19:55:54.971Z,10.10
2018-04-27T19:58:22.454Z,10.10
2018-04-27T20:00:49.951Z,10.10
2018-04-27T20:03:17.418Z,9.90
2018-04-27T20:05:46.875Z,9.70
2018-04-27T20:08:14.390Z,9.70
2018-04-27T20:10:44.889Z,9.60
2018-04-27T20:13:12.316Z,9.40
2018-04-27T20:15:40.614Z,9.30
2018-04-27T20:18:11.549Z,9.20
2018-04-27T20:20:39.092Z,9.30
2018-04-27T20:23:08.418Z,9.30
2018-04-27T20:25:35.906Z,9.30
2018-04-27T20:28:04.944Z,9.30
2018-04-27T20:30:32.434Z,9.40
2018-04-27T20:33:00.674Z,9.50
2018-04-27T20:35:28.163Z,9.50
2018-04-27T20:38:00.478Z,9.50
2018-04-27T20:40:29.525Z,9.50
2018-04-27T20:42:57.069Z,9.50
2018-04-27T20:45:24.551Z,9.40
2018-04-27T20:47:52.066Z,9.10
2018-04-27T20:50:26.172Z,8.90
2018-04-27T20:52:53.688Z,8.90
2018-04-27T20:55:21.184Z,8.80
2018-04-27T20:57:49.433Z,8.50
2018-04-27T21:00:17.665Z,8.50
2018-04-27T21:02:46.912Z,8.50
2018-04-27T21:05:14.408Z,8.50
2018-04-27T21:07:41.870Z,8.40
2018-04-27T21:10:09.366Z,8.40
2018-04-27T21:12:36.900Z,8.40
2018-04-27T21:15:13.775Z,8.50
2018-04-27T21:17:50.038Z,8.50
2018-04-27T21:20:20.946Z,8.50
2018-04-27T21:22:49.223Z,8.50
2018-04-27T21:28:18.555Z,8.40
2018-04-27T21:30:48.480Z,8.40
2018-04-27T21:33:15.979Z,8.30
2018-04-27T21:35:52.296Z,8.40
2018-04-27T21:38:35.419Z,8.30
2018-04-27T21:44:31.258Z,8.40
2018-04-27T21:47:07.411Z,8.40
2018-04-27T21:49:34.886Z,8.40
2018-04-27T21:52:03.146Z,8.40
2018-04-27T21:54:33.468Z,8.40
2018-04-27T22:00:03.657Z,8.40
2018-04-27T22:02:32.864Z,8.40
2018-04-27T22:05:14.938Z,8.40
2018-04-27T22:07:45.461Z,8.40
2018-04-27T22:10:12.951Z,8.40
2018-04-27T22:12:45.017Z,8.40
2018-04-27T22:15:12.494Z,8.40
2018-04-27T22:20:15.744Z,8.40
2018-04-27T22:22:43.244Z,8.30
2018-04-27T22:25:19.696Z,8.30
2018-04-27T22:27:48.044Z,8.30
2018-04-27T22:33:18.757Z,8.30
2018-04-27T22:36:02.655Z,8.30
2018-04-27T22:38:30.874Z,8.30
2018-04-27T22:40:59.224Z,8.30
2018-04-27T22:43:26.686Z,8.30
2018-04-27T22:46:07.653Z,8.30
2018-04-27T22:48:43.471Z,8.30
2018-04-27T22:51:15.482Z,8.30
2018-04-27T22:53:50.669Z,8.20
2018-04-27T22:59:29.774Z,8.20
2018-04-27T23:02:03.271Z,8.20
2018-04-27T23:04:30.765Z,8.20
2018-04-27T23:06:58.470Z,8.20
2018-04-27T23:09:26.858Z,8.20
2018-04-27T23:11:54.327Z,8.00
2018-04-27T23:14:38.538Z,7.70
2018-04-27T23:17:17.494Z,7.70
2018-04-27T23:19:54.830Z,7.60
2018-04-27T23:22:43.207Z,7.70
2018-04-27T23:25:27.282Z,7.70
2018-04-27T23:27:54.757Z,7.70
2018-04-27T23:30:24.847Z,7.70
2018-04-27T23:32:52.475Z,7.60
2018-04-27T23:35:20.770Z,7.60
2018-04-27T23:37:48.242Z,7.60
2018-04-27T23:40:15.740Z,7.50
2018-04-27T23:42:44.202Z,7.40
2018-04-27T23:45:14.103Z,7.30
2018-04-27T23:47:41.635Z,7.30
2018-04-27T23:50:10.040Z,7.30
2018-04-27T23:52:38.382Z,7.20
2018-04-27T23:55:05.925Z,7.20
2018-04-27T23:57:33.455Z,7.20
